バクー の空港の天気 - METARとTAF

ヘイダル・アリエフ国際空港(バクー) ( UBBB / BAK ) - アゼルバイジャン バクー
飛行場実況気象(Metar)
観測時間05/29 00:00 +04 (05/28 20:00 UTC)
風向・風速西 2m/s
視程10km以上
天気現象
なし
気温18℃
湿度68%
気圧1015hPa
METARUBBB 282000Z 28004KT CAVOK 18/12 Q1015 R88/D NOSIG
過去の天気等 Google飛行場航空写真 Wunderground天気予報

過去48時間のMETAR

飛行場予報(TAF)
発表時間: 5/28 21:03 +04 (5/28 17:03 UTC)
予報対象時間: 28日22時 +04 ~ 29日22時 +04
風向・風速北北西 6m/s
視程10km以上
全天の4割程度の雲 雲底高度 610m
全天の4割程度の雲 雲底高度 2,440m
28日22時 +04 ~ 29日4時 +04 に 確率 40% で一時的に
風向・風速不定 12m/s
天気現象弱い雷雨
全天の8割程度の積乱雲 雲底高度 1,220m
29日4時 +04 ~ 29日10時 +04 に一時的に
風向・風速北北東 7m/s
全天の4割程度の雲 雲底高度 210m
全天の4割程度の積乱雲 雲底高度 1,220m
TAF UBBB 281703Z 2818/2918 34012KT 9999 SCT020 SCT080 TX25/2910Z TN14/2902Z
PROB40 TEMPO 2818/2824 VRB24KT -TSRA BKN040CB
TEMPO 2900/2906 03014KT SCT007 SCT040CB